createdAt,value
2023-03-10T00:00:05.536Z,95871.50
2023-03-10T00:02:34.704Z,95868.38
2023-03-10T00:05:04.144Z,95867.88
2023-03-10T00:07:31.034Z,95861.03
2023-03-10T00:09:57.543Z,95846.25
2023-03-10T00:12:27.618Z,95860.22
2023-03-10T00:14:56.170Z,95851.13
2023-03-10T00:17:22.636Z,95849.16
2023-03-10T00:19:49.107Z,95840.97
2023-03-10T00:22:15.574Z,95835.75
2023-03-10T00:24:42.092Z,95825.94
2023-03-10T00:27:08.601Z,95822.69
2023-03-10T00:29:35.061Z,95825.94
2023-03-10T00:32:01.565Z,95826.13
2023-03-10T00:34:28.099Z,95823.63
2023-03-10T00:36:54.605Z,95816.41
2023-03-10T00:39:21.089Z,95808.56
2023-03-10T00:41:49.065Z,95809.56
2023-03-10T00:44:16.130Z,95803.34
2023-03-10T00:46:42.839Z,95802.53
2023-03-10T00:49:16.212Z,95793.84
2023-03-10T00:51:42.892Z,95805.97
2023-03-10T00:54:10.034Z,95805.16
2023-03-10T00:56:36.989Z,95791.34
2023-03-10T00:59:04.620Z,95788.59
2023-03-10T01:01:36.991Z,95788.19
2023-03-10T01:04:12.764Z,95792.63
2023-03-10T01:06:39.732Z,95783.97
2023-03-10T01:09:06.810Z,95778.72
2023-03-10T01:11:34.193Z,95776.13
2023-03-10T01:14:04.185Z,95766.94
2023-03-10T01:16:30.992Z,95766.94
2023-03-10T01:18:59.711Z,95752.97
2023-03-10T01:21:31.673Z,95756.75
2023-03-10T01:23:59.973Z,95756.44
2023-03-10T01:26:26.465Z,95751.66
2023-03-10T01:28:53.264Z,95748.22
2023-03-10T01:31:19.931Z,95736.75
2023-03-10T01:33:46.798Z,95739.38
2023-03-10T01:36:22.152Z,95742.50
2023-03-10T01:38:49.928Z,95739.38
2023-03-10T01:41:17.535Z,95738.06
2023-03-10T01:43:52.956Z,95730.34
2023-03-10T01:46:31.282Z,95723.47
2023-03-10T01:49:09.167Z,95730.19
2023-03-10T01:51:39.508Z,95730.50
2023-03-10T01:54:14.318Z,95726.91
2023-03-10T01:56:42.017Z,95724.78
2023-03-10T01:59:10.877Z,95715.09
2023-03-10T02:01:37.624Z,95713.47
2023-03-10T02:04:13.919Z,95721.34
2023-03-10T02:06:42.509Z,95715.91
2023-03-10T02:09:10.186Z,95711.81
2023-03-10T02:11:38.431Z,95721.00
2023-03-10T02:14:06.335Z,95724.94
2023-03-10T02:16:34.530Z,95712.66
2023-03-10T02:19:04.216Z,95728.72
2023-03-10T02:21:44.413Z,95724.28
2023-03-10T02:24:35.795Z,95726.41
2023-03-10T02:27:17.616Z,95724.78
2023-03-10T02:29:59.298Z,95716.41
2023-03-10T02:32:30.129Z,95713.47
2023-03-10T02:34:56.661Z,95712.16
2023-03-10T02:37:31.249Z,95706.72
2023-03-10T02:39:58.950Z,95711.34
2023-03-10T02:42:34.367Z,95715.75
2023-03-10T02:45:02.965Z,95723.63
2023-03-10T02:47:29.496Z,95721.34
2023-03-10T02:49:55.948Z,95717.38
2023-03-10T02:52:55.705Z,95721.34
2023-03-10T02:55:22.252Z,95723.97
2023-03-10T02:57:48.954Z,95719.84
2023-03-10T03:00:16.113Z,95724.28
2023-03-10T03:02:42.639Z,95723.28
2023-03-10T03:05:09.444Z,95710.84
2023-03-10T03:07:36.239Z,95731.84
2023-03-10T03:10:03.854Z,95744.97
2023-03-10T03:12:30.369Z,95727.06
2023-03-10T03:14:56.842Z,95717.72
2023-03-10T03:17:23.363Z,95715.25
2023-03-10T03:19:49.863Z,95718.72
2023-03-10T03:22:16.325Z,95727.91
2023-03-10T03:24:42.831Z,95724.78
2023-03-10T03:27:09.316Z,95718.03
2023-03-10T03:29:36.147Z,95716.06
2023-03-10T03:32:02.695Z,95724.47
2023-03-10T03:34:29.282Z,95725.41
2023-03-10T03:36:55.806Z,95718.38
2023-03-10T03:39:22.296Z,95721.16
2023-03-10T03:41:53.076Z,95715.59
2023-03-10T03:44:19.594Z,95720.53
2023-03-10T03:46:46.054Z,95708.84
2023-03-10T03:49:12.545Z,95718.22
2023-03-10T03:51:39.080Z,95720.53
2023-03-10T03:54:05.660Z,95718.38
2023-03-10T03:56:32.165Z,95718.03
2023-03-10T03:58:58.843Z,95712.31
2023-03-10T04:01:25.474Z,95709.84
2023-03-10T04:03:51.982Z,95712.97
2023-03-10T04:06:18.570Z,95704.91
2023-03-10T04:08:45.051Z,95700.97
2023-03-10T04:11:11.517Z,95692.47
2023-03-10T04:13:37.991Z,95689.84
2023-03-10T04:16:05.061Z,95690.47
2023-03-10T04:18:31.602Z,95692.94
2023-03-10T04:20:58.107Z,95701.47
2023-03-10T04:23:24.620Z,95698.84
2023-03-10T04:25:51.133Z,95705.03
2023-03-10T04:28:17.844Z,95700.06
2023-03-10T04:30:46.140Z,95704.81
2023-03-10T04:33:12.665Z,95700.34
2023-03-10T04:35:47.400Z,95700.50
2023-03-10T04:38:14.127Z,95700.25
2023-03-10T04:40:40.614Z,95709.91
2023-03-10T04:43:07.112Z,95695.47
2023-03-10T04:45:33.602Z,95702.38
2023-03-10T04:48:00.204Z,95701.72
2023-03-10T04:50:26.846Z,95696.00
2023-03-10T04:52:53.560Z,95696.69
2023-03-10T04:55:20.252Z,95696.69
2023-03-10T04:57:46.813Z,95697.50
2023-03-10T05:00:13.767Z,95695.59
2023-03-10T05:02:40.746Z,95694.63
2023-03-10T05:05:07.689Z,95696.28
2023-03-10T05:07:34.227Z,95695.28
2023-03-10T05:10:00.767Z,95695.00
2023-03-10T05:12:27.345Z,95697.31
2023-03-10T05:14:53.835Z,95696.97
2023-03-10T05:17:20.320Z,95694.69
2023-03-10T05:19:46.821Z,95689.09
2023-03-10T05:22:13.382Z,95683.03
2023-03-10T05:24:40.943Z,95685.16
2023-03-10T05:27:08.598Z,95682.22
2023-03-10T05:29:35.209Z,95690.09
2023-03-10T05:32:01.685Z,95675.16
2023-03-10T05:34:28.168Z,95673.31
2023-03-10T05:36:54.707Z,95683.16
2023-03-10T05:39:21.198Z,95683.66
2023-03-10T05:41:47.756Z,95677.91
2023-03-10T05:44:14.240Z,95680.06
2023-03-10T05:46:40.879Z,95683.16
2023-03-10T05:49:07.351Z,95677.09
2023-03-10T05:51:33.850Z,95676.63
2023-03-10T05:54:00.377Z,95666.63
2023-03-10T05:56:26.850Z,95670.88
2023-03-10T05:58:53.337Z,95675.94
2023-03-10T06:01:20.225Z,95671.03
2023-03-10T06:03:46.834Z,95666.47
2023-03-10T06:06:13.662Z,95659.91
2023-03-10T06:08:40.502Z,95652.56
2023-03-10T06:11:07.030Z,95644.69
2023-03-10T06:13:33.644Z,95644.84
2023-03-10T06:16:04.726Z,95649.44
2023-03-10T06:18:31.531Z,95651.09
2023-03-10T06:20:58.409Z,95653.69
2023-03-10T06:23:25.732Z,95652.44
2023-03-10T06:26:09.056Z,95653.88
2023-03-10T06:28:38.917Z,95656.00
2023-03-10T06:31:20.104Z,95649.44
2023-03-10T06:33:46.961Z,95657.69
2023-03-10T06:36:14.693Z,95656.00
2023-03-10T06:38:41.640Z,95666.50
2023-03-10T06:41:09.404Z,95664.25
2023-03-10T06:43:37.005Z,95666.06
2023-03-10T06:46:08.201Z,95668.50
2023-03-10T06:48:37.528Z,95675.88
2023-03-10T06:51:16.072Z,95673.44
2023-03-10T06:53:43.191Z,95673.44
2023-03-10T06:56:16.866Z,95664.72
2023-03-10T06:58:45.241Z,95671.94
2023-03-10T07:01:29.230Z,95661.59
2023-03-10T07:03:56.841Z,95668.97
2023-03-10T07:06:25.321Z,95666.22
2023-03-10T07:08:54.235Z,95671.44
2023-03-10T07:11:21.184Z,95668.16
2023-03-10T07:13:47.847Z,95660.78
2023-03-10T07:16:14.480Z,95670.16
2023-03-10T07:18:41.056Z,95665.38
2023-03-10T07:21:14.677Z,95669.97
2023-03-10T07:23:41.468Z,95668.16
2023-03-10T07:26:08.991Z,95673.38
2023-03-10T07:28:37.721Z,95675.88
2023-03-10T07:31:11.128Z,95687.19
2023-03-10T07:33:38.807Z,95682.25
2023-03-10T07:36:12.202Z,95675.53
2023-03-10T07:38:39.249Z,95684.38
2023-03-10T07:41:13.450Z,95676.00
2023-03-10T07:43:40.100Z,95679.94
2023-03-10T07:46:11.177Z,95680.78
2023-03-10T07:48:38.123Z,95687.94
2023-03-10T07:51:05.334Z,95687.47
2023-03-10T07:53:33.101Z,95683.88
2023-03-10T07:55:59.993Z,95688.97
2023-03-10T07:58:26.621Z,95685.19
2023-03-10T08:00:58.828Z,95683.53
2023-03-10T08:03:28.389Z,95686.75
2023-03-10T08:05:55.728Z,95689.28
2023-03-10T08:08:23.146Z,95690.38
2023-03-10T08:10:49.719Z,95687.25
2023-03-10T08:13:16.298Z,95691.16
2023-03-10T08:15:42.767Z,95690.03
2023-03-10T08:18:12.359Z,95692.91
2023-03-10T08:20:40.587Z,95699.09
2023-03-10T08:23:07.219Z,95693.16
2023-03-10T08:25:33.734Z,95693.59
2023-03-10T08:28:00.203Z,95693.50
2023-03-10T08:30:26.829Z,95696.91
2023-03-10T08:32:57.641Z,95693.97
2023-03-10T08:35:24.305Z,95689.66
2023-03-10T08:37:55.346Z,95690.41
2023-03-10T08:40:22.124Z,95697.25
2023-03-10T08:42:48.807Z,95690.16
2023-03-10T08:45:15.362Z,95691.44
2023-03-10T08:47:42.014Z,95695.91
2023-03-10T08:50:09.687Z,95688.81
2023-03-10T08:52:36.206Z,95694.09
2023-03-10T08:55:04.986Z,95696.72
2023-03-10T08:57:32.440Z,95703.94
2023-03-10T08:59:59.853Z,95698.97
2023-03-10T09:02:29.263Z,95704.75
2023-03-10T09:04:55.872Z,95704.06
2023-03-10T09:07:22.308Z,95708.59
2023-03-10T09:09:48.889Z,95705.97
2023-03-10T09:12:15.348Z,95704.63
2023-03-10T09:14:41.919Z,95700.53
2023-03-10T09:17:10.071Z,95713.19
2023-03-10T09:19:38.043Z,95709.53
2023-03-10T09:22:04.700Z,95707.84
2023-03-10T09:24:31.369Z,95705.47
2023-03-10T09:26:57.887Z,95707.28
2023-03-10T09:29:40.465Z,95709.38
2023-03-10T09:32:09.144Z,95705.69
2023-03-10T09:34:35.752Z,95711.03
2023-03-10T09:37:02.241Z,95712.03
2023-03-10T09:39:28.793Z,95707.59
2023-03-10T09:42:36.536Z,95711.94
2023-03-10T09:45:10.867Z,95708.56
2023-03-10T09:48:28.138Z,95705.34
2023-03-10T09:50:56.612Z,95710.25
2023-03-10T09:53:45.009Z,95710.56
2023-03-10T09:56:20.201Z,95712.75
2023-03-10T09:59:12.726Z,95719.38
2023-03-10T10:01:47.258Z,95706.03
2023-03-10T10:04:36.539Z,95704.41
2023-03-10T10:07:15.393Z,95711.06
2023-03-10T10:10:02.260Z,95707.41
2023-03-10T10:12:28.799Z,95718.97
2023-03-10T10:15:01.218Z,95719.53
2023-03-10T10:18:17.618Z,95710.50
2023-03-10T10:20:53.793Z,95715.25
2023-03-10T10:23:36.908Z,95719.13
2023-03-10T10:26:17.722Z,95721.41
2023-03-10T10:28:55.249Z,95722.41
2023-03-10T10:31:29.400Z,95719.22
2023-03-10T10:34:21.067Z,95733.78
2023-03-10T10:36:55.672Z,95725.34
2023-03-10T10:39:36.998Z,95722.16
2023-03-10T10:42:34.528Z,95720.97
2023-03-10T10:45:06.170Z,95725.13
2023-03-10T10:47:49.136Z,95719.97
2023-03-10T10:50:29.627Z,95721.25
2023-03-10T10:53:20.619Z,95729.69
2023-03-10T10:56:05.736Z,95743.78
2023-03-10T10:58:38.644Z,95744.63
2023-03-10T11:01:09.690Z,95728.97
2023-03-10T11:03:43.324Z,95725.34
2023-03-10T11:06:34.866Z,95715.38
2023-03-10T11:09:18.038Z,95718.13
2023-03-10T11:12:05.704Z,95720.69
2023-03-10T11:15:31.796Z,95717.31
2023-03-10T11:18:13.058Z,95715.88
2023-03-10T11:21:10.171Z,95709.88
2023-03-10T11:24:38.605Z,95719.16
2023-03-10T11:27:24.607Z,95696.84
2023-03-10T11:30:16.442Z,95699.75
2023-03-10T11:32:57.257Z,95703.41
2023-03-10T11:35:36.019Z,95701.38
2023-03-10T11:38:30.498Z,95696.31
2023-03-10T11:41:13.628Z,95691.94
2023-03-10T11:44:01.275Z,95686.66
2023-03-10T11:47:00.540Z,95693.56
2023-03-10T11:49:36.737Z,95691.66
2023-03-10T11:52:26.432Z,95691.00
2023-03-10T11:55:12.081Z,95688.25
2023-03-10T11:57:47.481Z,95693.59
2023-03-10T12:00:42.624Z,95681.28
2023-03-10T12:03:45.309Z,95680.78
2023-03-10T12:06:25.512Z,95672.38
2023-03-10T12:08:58.703Z,95666.88
2023-03-10T12:11:28.940Z,95665.44
2023-03-10T12:14:01.400Z,95661.88
2023-03-10T12:16:35.882Z,95649.25
2023-03-10T12:19:06.034Z,95651.03
2023-03-10T12:21:33.596Z,95652.19
2023-03-10T12:24:04.068Z,95653.16
2023-03-10T12:26:39.765Z,95653.97
2023-03-10T12:29:21.251Z,95661.75
2023-03-10T12:31:55.215Z,95660.19
2023-03-10T12:34:24.390Z,95667.41
2023-03-10T12:36:54.523Z,95661.00
2023-03-10T12:39:43.806Z,95669.72
2023-03-10T12:42:30.078Z,95666.31
2023-03-10T12:45:21.761Z,95662.06
2023-03-10T12:48:17.759Z,95663.22
2023-03-10T12:50:58.078Z,95662.50
2023-03-10T12:53:56.613Z,95657.13
2023-03-10T12:56:42.494Z,95666.84
2023-03-10T12:59:33.129Z,95663.56
2023-03-10T13:02:02.050Z,95662.22
2023-03-10T13:04:28.912Z,95663.22
2023-03-10T13:07:03.366Z,95656.66
2023-03-10T13:09:43.641Z,95652.38
2023-03-10T13:12:28.905Z,95649.75
2023-03-10T13:14:59.592Z,95638.19
2023-03-10T13:17:29.663Z,95643.38
2023-03-10T13:20:18.809Z,95635.47
2023-03-10T13:22:58.383Z,95642.44
2023-03-10T13:25:26.022Z,95640.00
2023-03-10T13:27:53.624Z,95642.97
2023-03-10T13:30:26.454Z,95641.63
2023-03-10T13:32:59.563Z,95635.56
2023-03-10T13:35:39.057Z,95631.94
2023-03-10T13:38:21.255Z,95631.19
2023-03-10T13:41:02.160Z,95640.91
2023-03-10T13:43:35.585Z,95630.13
2023-03-10T13:46:05.678Z,95639.56
2023-03-10T13:48:33.908Z,95627.59
2023-03-10T13:51:39.090Z,95622.22
2023-03-10T13:54:35.128Z,95619.31
2023-03-10T13:57:16.459Z,95620.31
2023-03-10T13:59:43.519Z,95619.13
2023-03-10T14:02:17.716Z,95621.19
2023-03-10T14:04:51.070Z,95620.47
2023-03-10T14:07:30.579Z,95612.56
2023-03-10T14:10:05.884Z,95618.53
2023-03-10T14:12:47.300Z,95626.34
2023-03-10T14:15:19.909Z,95623.31
2023-03-10T14:18:13.110Z,95622.94
2023-03-10T14:20:44.374Z,95635.06
2023-03-10T14:23:21.355Z,95639.72
2023-03-10T14:25:56.695Z,95634.84
2023-03-10T14:28:29.973Z,95636.34
2023-03-10T14:30:57.245Z,95623.72
2023-03-10T14:33:24.075Z,95614.59
2023-03-10T14:35:50.762Z,95611.97
2023-03-10T14:38:17.994Z,95610.31
2023-03-10T14:40:51.683Z,95623.06
2023-03-10T14:43:24.568Z,95617.00
2023-03-10T14:45:54.814Z,95612.13
2023-03-10T14:48:26.690Z,95614.56
2023-03-10T14:50:56.615Z,95625.06
2023-03-10T14:53:25.802Z,95647.94
2023-03-10T14:55:57.002Z,95651.22
2023-03-10T14:58:30.543Z,95647.16
2023-03-10T15:00:57.256Z,95661.78
2023-03-10T15:03:23.701Z,95662.84
2023-03-10T15:05:50.214Z,95683.22
2023-03-10T15:08:18.253Z,95698.34
2023-03-10T15:10:50.415Z,95678.97
2023-03-10T15:13:20.772Z,95697.84
2023-03-10T15:15:48.428Z,95663.84
2023-03-10T15:18:19.785Z,95689.78
2023-03-10T15:20:47.229Z,95703.72
2023-03-10T15:23:17.620Z,95699.94
2023-03-10T15:25:46.224Z,95723.66
2023-03-10T15:28:13.795Z,95730.69
2023-03-10T15:30:40.778Z,95721.84
2023-03-10T15:33:07.237Z,95739.88
2023-03-10T15:35:33.956Z,95737.88
2023-03-10T15:38:00.654Z,95722.75
2023-03-10T15:40:31.588Z,95723.84
2023-03-10T15:42:59.677Z,95732.31
2023-03-10T15:45:29.980Z,95730.63
2023-03-10T15:47:57.803Z,95730.25
2023-03-10T15:50:24.409Z,95727.00
2023-03-10T15:52:54.971Z,95736.44
2023-03-10T15:55:22.488Z,95727.84
2023-03-10T15:57:49.958Z,95730.34
2023-03-10T16:00:20.132Z,95726.47
2023-03-10T16:02:48.416Z,95721.16
2023-03-10T16:05:15.516Z,95729.38
2023-03-10T16:07:42.004Z,95735.31
2023-03-10T16:10:15.370Z,95759.97
2023-03-10T16:12:42.055Z,95759.66
2023-03-10T16:15:09.718Z,95761.63
2023-03-10T16:17:36.525Z,95762.19
2023-03-10T16:20:11.864Z,95767.47
2023-03-10T16:22:41.446Z,95780.66
2023-03-10T16:25:15.008Z,95785.97
2023-03-10T16:27:43.560Z,95797.34
2023-03-10T16:30:12.222Z,95813.34
2023-03-10T16:32:39.017Z,95814.19
2023-03-10T16:35:06.686Z,95799.63
2023-03-10T16:37:33.221Z,95804.38
2023-03-10T16:39:59.783Z,95819.38
2023-03-10T16:42:26.402Z,95812.09
2023-03-10T16:44:56.816Z,95823.34
2023-03-10T16:47:24.290Z,95817.03
2023-03-10T16:49:50.783Z,95808.38
2023-03-10T16:52:17.300Z,95805.34
2023-03-10T16:54:46.390Z,95813.44
2023-03-10T16:57:15.057Z,95826.66
2023-03-10T16:59:42.953Z,95809.91
2023-03-10T17:02:15.462Z,95835.97
2023-03-10T17:04:42.338Z,95837.66
2023-03-10T17:07:08.940Z,95841.91
2023-03-10T17:09:36.545Z,95848.34
2023-03-10T17:12:03.454Z,95848.91
2023-03-10T17:14:30.550Z,95855.00
2023-03-10T17:16:57.278Z,95860.91
2023-03-10T17:19:28.651Z,95869.84
2023-03-10T17:21:56.499Z,95876.16
2023-03-10T17:24:23.738Z,95879.72
2023-03-10T17:26:50.458Z,95877.53
2023-03-10T17:29:17.418Z,95867.50
2023-03-10T17:31:48.650Z,95867.63
2023-03-10T17:34:15.352Z,95896.31
2023-03-10T17:36:42.165Z,95948.91
2023-03-10T17:39:08.714Z,95965.25
2023-03-10T17:41:36.269Z,95971.34
2023-03-10T17:44:05.546Z,95993.19
2023-03-10T17:46:32.524Z,95997.81
2023-03-10T17:49:00.318Z,96010.44
2023-03-10T17:51:30.831Z,96037.78
2023-03-10T17:54:01.132Z,96049.06
2023-03-10T17:56:28.342Z,96072.47
2023-03-10T17:58:57.076Z,96140.13
2023-03-10T18:01:27.516Z,96126.75
2023-03-10T18:03:56.528Z,96080.69
2023-03-10T18:06:28.299Z,96127.47
2023-03-10T18:08:56.711Z,96163.28
2023-03-10T18:11:24.380Z,96189.47
2023-03-10T18:13:51.632Z,96181.13
2023-03-10T18:16:31.014Z,96202.69
2023-03-10T18:18:59.020Z,96227.75
2023-03-10T18:21:27.297Z,96224.59
2023-03-10T18:23:54.570Z,96243.66
2023-03-10T18:26:25.743Z,96267.59
2023-03-10T18:28:52.252Z,96296.72
2023-03-10T18:31:28.739Z,96277.66
2023-03-10T18:33:55.272Z,96285.88
2023-03-10T18:36:24.057Z,96317.13
2023-03-10T18:38:51.803Z,96318.13
2023-03-10T18:41:22.087Z,96361.31
2023-03-10T18:43:48.825Z,96346.66
2023-03-10T18:46:15.646Z,96363.22
2023-03-10T18:48:42.216Z,96376.75
2023-03-10T18:51:10.254Z,96384.00
2023-03-10T18:53:37.779Z,96396.47
2023-03-10T18:56:04.858Z,96419.84
2023-03-10T18:58:32.925Z,96424.19
2023-03-10T19:00:59.779Z,96433.03
2023-03-10T19:03:30.922Z,96453.38
2023-03-10T19:05:57.799Z,96451.31
2023-03-10T19:08:25.537Z,96466.78
2023-03-10T19:11:00.284Z,96471.47
2023-03-10T19:13:28.726Z,96494.13
2023-03-10T19:15:56.114Z,96496.00
2023-03-10T19:18:23.953Z,96503.91
2023-03-10T19:20:50.946Z,96524.34
2023-03-10T19:23:18.155Z,96514.16
2023-03-10T19:25:44.700Z,96537.06
2023-03-10T19:28:11.230Z,96544.63
2023-03-10T19:30:42.763Z,96546.91
2023-03-10T19:33:10.868Z,96552.63
2023-03-10T19:35:38.400Z,96570.25
2023-03-10T19:38:05.423Z,96582.50
2023-03-10T19:40:31.928Z,96587.84
2023-03-10T19:42:58.413Z,96596.69
2023-03-10T19:45:24.979Z,96616.97
2023-03-10T19:47:52.354Z,96622.78
2023-03-10T19:50:19.417Z,96636.84
2023-03-10T19:52:48.442Z,96638.97
2023-03-10T19:55:22.867Z,96649.53
2023-03-10T19:57:53.679Z,96670.53
2023-03-10T20:00:30.793Z,96678.84
2023-03-10T20:02:57.981Z,96684.69
2023-03-10T20:05:27.258Z,96690.41
2023-03-10T20:07:54.019Z,96709.97
2023-03-10T20:10:20.591Z,96704.41
2023-03-10T20:12:47.370Z,96726.28
2023-03-10T20:15:14.574Z,96728.78
2023-03-10T20:17:41.247Z,96732.78
2023-03-10T20:20:11.411Z,96743.53
2023-03-10T20:22:45.410Z,96757.19
2023-03-10T20:25:17.482Z,96757.47
2023-03-10T20:27:45.571Z,96766.66
2023-03-10T20:30:27.632Z,96786.44
2023-03-10T20:32:56.866Z,96792.16
2023-03-10T20:35:24.977Z,96797.72
2023-03-10T20:37:51.557Z,96782.34
2023-03-10T20:40:23.943Z,96795.78
2023-03-10T20:42:52.370Z,96808.00
2023-03-10T20:45:19.552Z,96828.69
2023-03-10T20:47:47.904Z,96820.91
2023-03-10T20:50:16.231Z,96825.19
2023-03-10T20:52:43.674Z,96828.31
2023-03-10T20:55:20.109Z,96839.06
2023-03-10T20:57:48.940Z,96830.16
2023-03-10T21:00:17.783Z,96849.22
2023-03-10T21:02:46.595Z,96843.69
2023-03-10T21:05:14.941Z,96863.13
2023-03-10T21:07:42.276Z,96866.13
2023-03-10T21:10:12.254Z,96874.63
2023-03-10T21:12:41.680Z,96879.56
2023-03-10T21:15:10.700Z,96895.50
2023-03-10T21:17:37.248Z,96897.63
2023-03-10T21:20:07.921Z,96898.69
2023-03-10T21:22:36.633Z,96893.44
2023-03-10T21:25:06.782Z,96905.47
2023-03-10T21:27:35.142Z,96905.47
2023-03-10T21:30:09.645Z,96910.78
2023-03-10T21:32:37.732Z,96916.84
2023-03-10T21:35:06.169Z,96914.34
2023-03-10T21:37:32.668Z,96928.00
2023-03-10T21:39:59.133Z,96931.63
2023-03-10T21:42:25.599Z,96936.63
2023-03-10T21:44:54.513Z,96942.38
2023-03-10T21:47:20.971Z,96948.53
2023-03-10T21:49:47.467Z,96937.41
2023-03-10T21:52:14.352Z,96945.66
2023-03-10T21:54:40.937Z,96953.53
2023-03-10T21:57:07.431Z,96965.09
2023-03-10T21:59:33.913Z,96964.06
2023-03-10T22:02:03.768Z,96963.03
2023-03-10T22:04:32.466Z,96973.44
2023-03-10T22:06:59.926Z,96977.13
2023-03-10T22:09:31.077Z,96995.38
2023-03-10T22:11:57.941Z,96992.03
2023-03-10T22:14:24.633Z,97009.59
2023-03-10T22:16:51.200Z,97001.03
2023-03-10T22:19:17.791Z,97002.56
2023-03-10T22:21:44.241Z,97015.78
2023-03-10T22:24:13.504Z,97008.25
2023-03-10T22:26:40.467Z,97018.59
2023-03-10T22:29:07.075Z,97020.78
2023-03-10T22:31:33.935Z,97017.56
2023-03-10T22:34:00.741Z,97030.91
2023-03-10T22:36:28.131Z,97044.41
2023-03-10T22:38:54.595Z,97052.19
2023-03-10T22:41:21.246Z,97051.00
2023-03-10T22:43:51.691Z,97068.34
2023-03-10T22:46:18.273Z,97068.41
2023-03-10T22:48:47.579Z,97058.88
2023-03-10T22:51:18.002Z,97071.50
2023-03-10T22:53:48.494Z,97082.91
2023-03-10T22:56:15.210Z,97091.28
2023-03-10T22:58:41.847Z,97082.25
2023-03-10T23:01:08.989Z,97086.91
2023-03-10T23:03:35.995Z,97089.91
2023-03-10T23:06:06.245Z,97088.31
2023-03-10T23:08:37.378Z,97095.34
2023-03-10T23:11:13.372Z,97109.34
2023-03-10T23:13:42.827Z,97109.28
2023-03-10T23:16:09.504Z,97115.38
2023-03-10T23:18:36.318Z,97120.66
2023-03-10T23:21:03.891Z,97120.91
2023-03-10T23:23:31.829Z,97119.44
2023-03-10T23:25:58.633Z,97127.25
2023-03-10T23:28:25.147Z,97140.00
2023-03-10T23:30:54.028Z,97134.59
2023-03-10T23:33:23.626Z,97137.13
2023-03-10T23:35:53.673Z,97143.63
2023-03-10T23:38:23.230Z,97142.06
2023-03-10T23:40:51.046Z,97130.94
2023-03-10T23:43:18.000Z,97144.81
2023-03-10T23:45:44.648Z,97145.75
2023-03-10T23:48:18.851Z,97147.25
2023-03-10T23:50:48.071Z,97151.38
2023-03-10T23:53:17.109Z,97155.72
2023-03-10T23:55:47.041Z,97153.38
2023-03-10T23:58:15.936Z,97164.09
